createdAt,value
2018-11-29T00:01:36.840Z,961.15
2018-11-29T00:04:03.207Z,961.14
2018-11-29T00:06:29.509Z,961.27
2018-11-29T00:08:55.808Z,961.25
2018-11-29T00:11:22.096Z,961.33
2018-11-29T00:13:48.433Z,961.38
2018-11-29T00:16:14.740Z,961.39
2018-11-29T00:18:41.053Z,961.50
2018-11-29T00:21:07.352Z,961.51
2018-11-29T00:23:33.663Z,961.56
2018-11-29T00:25:59.963Z,961.55
2018-11-29T00:28:26.293Z,961.52
2018-11-29T00:30:52.594Z,961.56
2018-11-29T00:33:18.885Z,961.57
2018-11-29T00:35:45.220Z,961.60
2018-11-29T00:38:11.533Z,961.61
2018-11-29T00:40:37.829Z,961.54
2018-11-29T00:43:04.152Z,961.61
2018-11-29T00:45:30.486Z,961.72
2018-11-29T00:47:56.779Z,961.79
2018-11-29T00:50:23.066Z,961.75
2018-11-29T00:52:49.391Z,961.71
2018-11-29T00:55:15.690Z,961.71
2018-11-29T00:57:42.018Z,961.77
2018-11-29T01:00:08.319Z,961.72
2018-11-29T01:02:34.637Z,961.81
2018-11-29T01:05:00.972Z,961.77
2018-11-29T01:07:27.286Z,961.84
2018-11-29T01:09:53.608Z,961.90
2018-11-29T01:12:19.918Z,961.92
2018-11-29T01:14:46.212Z,961.95
2018-11-29T01:17:12.518Z,962.00
2018-11-29T01:19:38.858Z,962.05
2018-11-29T01:22:05.146Z,962.06
2018-11-29T01:24:31.440Z,962.07
2018-11-29T01:26:57.768Z,962.03
2018-11-29T01:29:24.098Z,962.04
2018-11-29T01:31:50.410Z,962.01
2018-11-29T01:34:16.747Z,962.03
2018-11-29T01:36:43.065Z,962.00
2018-11-29T01:39:09.379Z,962.00
2018-11-29T01:41:35.725Z,961.99
2018-11-29T01:44:02.053Z,962.06
2018-11-29T01:46:28.343Z,962.04
2018-11-29T01:48:54.633Z,962.10
2018-11-29T01:51:21.009Z,962.03
2018-11-29T01:53:47.301Z,962.04
2018-11-29T01:56:13.601Z,962.12
2018-11-29T01:58:39.911Z,962.10
2018-11-29T02:01:06.233Z,962.01
2018-11-29T02:03:32.557Z,962.14
2018-11-29T02:05:58.862Z,962.10
2018-11-29T02:08:25.240Z,962.16
2018-11-29T02:10:51.546Z,962.12
2018-11-29T02:13:17.867Z,962.20
2018-11-29T02:15:44.184Z,962.21
2018-11-29T02:18:10.501Z,962.17
2018-11-29T02:20:36.799Z,962.19
2018-11-29T02:23:03.134Z,962.23
2018-11-29T02:25:29.454Z,962.20
2018-11-29T02:27:55.749Z,962.23
2018-11-29T02:30:22.081Z,962.21
2018-11-29T02:32:48.376Z,962.21
2018-11-29T02:35:14.678Z,962.21
2018-11-29T02:37:41.005Z,962.23
2018-11-29T02:40:07.327Z,962.26
2018-11-29T02:42:33.643Z,962.31
2018-11-29T02:44:59.982Z,962.32
2018-11-29T02:47:26.284Z,962.32
2018-11-29T02:49:52.580Z,962.37
2018-11-29T02:52:18.887Z,962.39
2018-11-29T02:54:45.243Z,962.38
2018-11-29T02:57:11.532Z,962.39
2018-11-29T02:59:37.853Z,962.41
2018-11-29T03:02:04.152Z,962.42
2018-11-29T03:04:30.437Z,962.45
2018-11-29T03:06:56.762Z,962.50
2018-11-29T03:09:23.107Z,962.50
2018-11-29T03:11:49.398Z,962.60
2018-11-29T03:14:15.694Z,962.57
2018-11-29T03:16:42.001Z,962.49
2018-11-29T03:19:08.310Z,962.61
2018-11-29T03:21:34.626Z,962.59
2018-11-29T03:24:00.949Z,962.60
2018-11-29T03:26:27.256Z,962.69
2018-11-29T03:28:53.572Z,962.67
2018-11-29T03:31:19.880Z,962.79
2018-11-29T03:33:46.196Z,962.76
2018-11-29T03:36:12.484Z,962.81
2018-11-29T03:38:38.813Z,962.88
2018-11-29T03:41:05.139Z,962.90
2018-11-29T03:43:31.470Z,962.98
2018-11-29T03:45:57.825Z,962.96
2018-11-29T03:48:24.145Z,963.04
2018-11-29T03:50:50.517Z,963.06
2018-11-29T03:53:16.846Z,963.13
2018-11-29T03:55:43.157Z,963.07
2018-11-29T03:58:09.521Z,963.08
2018-11-29T04:00:35.845Z,963.14
2018-11-29T04:03:02.168Z,963.12
2018-11-29T04:05:28.472Z,963.12
2018-11-29T04:07:54.770Z,963.22
2018-11-29T04:10:21.078Z,963.22
2018-11-29T04:12:47.392Z,963.25
2018-11-29T04:15:13.719Z,963.24
2018-11-29T04:17:40.960Z,963.24
2018-11-29T04:20:06.346Z,963.32
2018-11-29T04:22:32.662Z,963.40
2018-11-29T04:24:58.948Z,963.38
2018-11-29T04:27:25.262Z,963.43
2018-11-29T04:29:51.550Z,963.45
2018-11-29T04:32:17.877Z,963.38
2018-11-29T04:34:44.178Z,963.47
2018-11-29T04:37:10.503Z,963.47
2018-11-29T04:39:36.817Z,963.49
2018-11-29T04:42:03.112Z,963.51
2018-11-29T04:44:29.452Z,963.59
2018-11-29T04:46:55.773Z,963.65
2018-11-29T04:49:22.061Z,963.66
2018-11-29T04:51:48.377Z,963.72
2018-11-29T04:54:14.673Z,963.76
2018-11-29T04:56:41.019Z,963.86
2018-11-29T04:59:07.345Z,963.88
2018-11-29T05:01:33.643Z,963.86
2018-11-29T05:03:59.925Z,963.91
2018-11-29T05:06:26.265Z,963.92
2018-11-29T05:08:52.558Z,963.94
2018-11-29T05:11:18.892Z,963.96
2018-11-29T05:13:45.191Z,964.00
2018-11-29T05:16:11.489Z,964.04
2018-11-29T05:18:37.778Z,964.05
2018-11-29T05:21:04.088Z,964.06
2018-11-29T05:23:30.403Z,964.03
2018-11-29T05:25:56.720Z,964.11
2018-11-29T05:28:23.092Z,964.14
2018-11-29T05:30:49.398Z,964.11
2018-11-29T05:33:15.685Z,964.18
2018-11-29T05:35:42.010Z,964.11
2018-11-29T05:38:08.317Z,964.20
2018-11-29T05:40:34.685Z,964.29
2018-11-29T05:43:00.996Z,964.36
2018-11-29T05:45:27.386Z,964.40
2018-11-29T05:47:53.706Z,964.41
2018-11-29T05:50:20.043Z,964.52
2018-11-29T05:52:46.343Z,964.52
2018-11-29T05:55:12.650Z,964.52
2018-11-29T05:57:38.958Z,964.55
2018-11-29T06:00:06.031Z,964.57
2018-11-29T06:02:32.380Z,964.62
2018-11-29T06:04:58.660Z,964.78
2018-11-29T06:07:24.999Z,964.82
2018-11-29T06:09:51.294Z,964.84
2018-11-29T06:12:17.587Z,964.87
2018-11-29T06:14:43.933Z,964.88
2018-11-29T06:17:10.269Z,964.89
2018-11-29T06:19:36.584Z,964.94
2018-11-29T06:22:02.881Z,964.96
2018-11-29T06:24:29.211Z,964.99
2018-11-29T06:26:55.526Z,965.06
2018-11-29T06:29:21.862Z,965.04
2018-11-29T06:31:48.162Z,965.07
2018-11-29T06:34:14.458Z,965.05
2018-11-29T06:36:40.770Z,965.13
2018-11-29T06:39:07.069Z,965.14
2018-11-29T06:41:33.409Z,965.13
2018-11-29T06:43:59.729Z,965.20
2018-11-29T06:46:26.046Z,965.17
2018-11-29T06:48:52.333Z,965.15
2018-11-29T06:51:18.625Z,965.16
2018-11-29T06:53:44.954Z,965.15
2018-11-29T06:56:11.250Z,965.24
2018-11-29T06:58:37.568Z,965.23
2018-11-29T07:01:03.863Z,965.26
2018-11-29T07:03:30.197Z,965.25
2018-11-29T07:05:56.501Z,965.28
2018-11-29T07:08:22.812Z,965.30
2018-11-29T07:10:49.141Z,965.36
2018-11-29T07:13:15.447Z,965.38
2018-11-29T07:15:41.824Z,965.43
2018-11-29T07:18:08.193Z,965.43
2018-11-29T07:20:34.487Z,965.48
2018-11-29T07:23:00.785Z,965.49
2018-11-29T07:25:27.102Z,965.52
2018-11-29T07:27:53.419Z,965.57
2018-11-29T07:30:19.719Z,965.58
2018-11-29T07:32:46.042Z,965.59
2018-11-29T07:35:12.344Z,965.57
2018-11-29T07:37:38.665Z,965.53
2018-11-29T07:40:04.982Z,965.56
2018-11-29T07:42:31.327Z,965.56
2018-11-29T07:44:57.649Z,965.60
2018-11-29T07:47:23.979Z,965.62
2018-11-29T07:49:50.314Z,965.59
2018-11-29T07:52:16.640Z,965.69
2018-11-29T07:54:42.963Z,965.64
2018-11-29T07:57:09.270Z,965.65
2018-11-29T07:59:35.625Z,965.67
2018-11-29T08:02:01.999Z,965.70
2018-11-29T08:04:28.272Z,965.68
2018-11-29T08:06:54.578Z,965.70
2018-11-29T08:09:20.902Z,965.74
2018-11-29T08:11:47.208Z,965.71
2018-11-29T08:14:13.547Z,965.68
2018-11-29T08:16:39.861Z,965.72
2018-11-29T08:19:06.154Z,965.68
2018-11-29T08:21:32.527Z,965.73
2018-11-29T08:23:58.815Z,965.75
2018-11-29T08:26:25.204Z,965.75
2018-11-29T08:28:51.537Z,965.77
2018-11-29T08:31:17.865Z,965.80
2018-11-29T08:33:44.162Z,965.81
2018-11-29T08:36:10.539Z,965.80
2018-11-29T08:38:36.843Z,965.76
2018-11-29T08:41:03.159Z,965.82
2018-11-29T08:43:29.495Z,965.82
2018-11-29T08:45:55.804Z,965.86
2018-11-29T08:48:22.121Z,965.76
2018-11-29T08:50:48.464Z,965.76
2018-11-29T08:53:14.815Z,965.75
2018-11-29T08:55:41.106Z,965.77
2018-11-29T08:58:07.443Z,965.82
2018-11-29T09:00:33.781Z,965.82
2018-11-29T09:03:00.094Z,965.80
2018-11-29T09:05:26.420Z,965.69
2018-11-29T09:07:52.731Z,965.65
2018-11-29T09:10:19.020Z,965.70
2018-11-29T09:12:45.314Z,965.73
2018-11-29T09:15:11.620Z,965.76
2018-11-29T09:17:37.937Z,965.70
2018-11-29T09:20:04.256Z,965.64
2018-11-29T09:22:30.638Z,965.65
2018-11-29T09:24:56.927Z,965.70
2018-11-29T09:27:23.284Z,965.69
2018-11-29T09:29:49.612Z,965.74
2018-11-29T09:32:15.939Z,965.77
2018-11-29T09:34:42.296Z,965.71
2018-11-29T09:37:08.616Z,965.73
2018-11-29T09:39:34.987Z,965.73
2018-11-29T09:42:02.961Z,965.63
2018-11-29T09:44:27.661Z,965.71
2018-11-29T09:46:53.989Z,965.61
2018-11-29T09:49:20.353Z,965.58
2018-11-29T09:51:46.668Z,965.58
2018-11-29T09:54:12.997Z,965.46
2018-11-29T09:56:39.306Z,965.43
2018-11-29T09:59:05.598Z,965.42
2018-11-29T10:01:31.935Z,965.50
2018-11-29T10:03:58.232Z,965.38
2018-11-29T10:06:24.547Z,965.38
2018-11-29T10:08:50.923Z,965.44
2018-11-29T10:11:17.254Z,965.37
2018-11-29T10:13:46.391Z,965.34
2018-11-29T10:16:09.890Z,965.28
2018-11-29T10:18:36.190Z,965.27
2018-11-29T10:21:02.527Z,965.24
2018-11-29T10:23:28.847Z,965.23
2018-11-29T10:25:55.158Z,965.25
2018-11-29T10:28:21.479Z,965.22
2018-11-29T10:30:47.775Z,965.22
2018-11-29T10:33:14.100Z,965.22
2018-11-29T10:35:40.429Z,965.28
2018-11-29T10:38:06.729Z,965.30
2018-11-29T10:40:33.041Z,965.28
2018-11-29T10:42:59.405Z,965.32
2018-11-29T10:45:25.681Z,965.31
2018-11-29T10:47:52.769Z,965.21
2018-11-29T10:50:18.342Z,965.28
2018-11-29T10:52:44.633Z,965.31
2018-11-29T10:55:10.971Z,965.22
2018-11-29T10:57:37.347Z,965.26
2018-11-29T11:00:03.662Z,965.31
2018-11-29T11:02:29.975Z,965.29
2018-11-29T11:04:56.311Z,965.31
2018-11-29T11:07:22.582Z,965.34
2018-11-29T11:09:48.873Z,965.38
2018-11-29T11:12:18.644Z,965.39
2018-11-29T11:14:41.533Z,965.33
2018-11-29T11:17:07.851Z,965.36
2018-11-29T11:19:34.220Z,965.35
2018-11-29T11:22:00.517Z,965.32
2018-11-29T11:24:26.818Z,965.29
2018-11-29T11:26:53.156Z,965.30
2018-11-29T11:29:19.499Z,965.31
2018-11-29T11:31:45.823Z,965.30
2018-11-29T11:34:12.135Z,965.30
2018-11-29T11:36:38.445Z,965.22
2018-11-29T11:39:04.776Z,965.20
2018-11-29T11:41:31.112Z,965.24
2018-11-29T11:43:57.425Z,965.26
2018-11-29T11:46:23.763Z,965.26
2018-11-29T11:48:50.164Z,965.14
2018-11-29T11:51:16.448Z,965.17
2018-11-29T11:53:42.741Z,965.09
2018-11-29T11:56:09.062Z,964.99
2018-11-29T11:58:35.408Z,964.97
2018-11-29T12:01:01.765Z,964.97
2018-11-29T12:03:28.075Z,964.92
2018-11-29T12:05:54.394Z,964.94
2018-11-29T12:08:20.725Z,964.90
2018-11-29T12:10:47.038Z,964.89
2018-11-29T12:13:13.394Z,964.80
2018-11-29T12:15:39.690Z,964.83
2018-11-29T12:18:06.026Z,964.81
2018-11-29T12:20:32.359Z,964.86
2018-11-29T12:22:58.670Z,964.85
2018-11-29T12:25:24.981Z,964.87
2018-11-29T12:27:51.301Z,964.86
2018-11-29T12:30:17.591Z,964.94
2018-11-29T12:32:43.902Z,964.89
2018-11-29T12:35:10.247Z,964.86
2018-11-29T12:37:36.568Z,964.88
2018-11-29T12:40:02.971Z,964.86
2018-11-29T12:42:29.268Z,964.88
2018-11-29T12:44:55.586Z,964.93
2018-11-29T12:47:21.880Z,964.90
2018-11-29T12:49:48.200Z,964.89
2018-11-29T12:52:14.574Z,964.88
2018-11-29T12:54:40.875Z,964.92
2018-11-29T12:57:07.205Z,964.86
2018-11-29T12:59:33.537Z,964.79
2018-11-29T13:01:59.850Z,964.84
2018-11-29T13:04:26.194Z,964.80
2018-11-29T13:06:52.497Z,964.75
2018-11-29T13:09:18.808Z,964.81
2018-11-29T13:11:45.099Z,964.79
2018-11-29T13:14:11.528Z,964.81
2018-11-29T13:16:37.750Z,964.79
2018-11-29T13:19:04.125Z,964.80
2018-11-29T13:21:30.417Z,964.89
2018-11-29T13:24:00.277Z,964.88
2018-11-29T13:26:23.073Z,964.83
2018-11-29T13:28:49.443Z,964.83
2018-11-29T13:31:15.706Z,964.86
2018-11-29T13:33:42.039Z,964.85
2018-11-29T13:36:08.312Z,964.88
2018-11-29T13:38:34.663Z,964.94
2018-11-29T13:41:00.939Z,964.87
2018-11-29T13:43:27.267Z,964.88
2018-11-29T13:45:53.610Z,964.93
2018-11-29T13:48:19.937Z,964.89
2018-11-29T13:50:46.270Z,964.84
2018-11-29T13:53:12.585Z,964.92
2018-11-29T13:55:39.090Z,964.99
2018-11-29T13:58:05.253Z,964.97
2018-11-29T14:00:31.610Z,964.97
2018-11-29T14:02:57.961Z,964.97
2018-11-29T14:05:24.314Z,964.90
2018-11-29T14:07:50.572Z,964.97
2018-11-29T14:10:16.909Z,964.89
2018-11-29T14:12:43.294Z,964.93
2018-11-29T14:15:09.650Z,964.89
2018-11-29T14:17:35.947Z,964.86
2018-11-29T14:20:02.287Z,964.90
2018-11-29T14:22:28.665Z,964.91
2018-11-29T14:24:55.040Z,964.86
2018-11-29T14:27:21.355Z,964.92
2018-11-29T14:29:47.787Z,964.94
2018-11-29T14:32:14.110Z,964.93
2018-11-29T14:34:40.454Z,964.97
2018-11-29T14:37:06.853Z,964.92
2018-11-29T14:39:33.320Z,965.01
2018-11-29T14:41:59.640Z,965.02
2018-11-29T14:44:25.997Z,964.97
2018-11-29T14:46:52.361Z,965.02
2018-11-29T14:49:18.650Z,965.03
2018-11-29T14:51:48.008Z,964.97
2018-11-29T14:54:11.326Z,965.00
2018-11-29T14:56:37.660Z,965.03
2018-11-29T14:59:03.993Z,964.99
2018-11-29T15:01:30.418Z,965.12
2018-11-29T15:03:56.773Z,965.14
2018-11-29T15:06:23.146Z,965.05
2018-11-29T15:08:49.465Z,965.17
2018-11-29T15:11:15.869Z,965.15
2018-11-29T15:13:42.159Z,965.06
2018-11-29T15:16:09.640Z,965.11
2018-11-29T15:18:36.072Z,965.12
2018-11-29T15:21:02.410Z,965.09
2018-11-29T15:23:28.718Z,965.12
2018-11-29T15:25:55.051Z,965.09
2018-11-29T15:28:21.356Z,965.19
2018-11-29T15:30:47.736Z,965.14
2018-11-29T15:33:14.050Z,965.12
2018-11-29T15:35:40.379Z,965.13
2018-11-29T15:38:06.753Z,965.14
2018-11-29T15:40:33.071Z,965.10
2018-11-29T15:42:59.405Z,965.16
2018-11-29T15:45:25.728Z,965.23
2018-11-29T15:47:52.034Z,965.23
2018-11-29T15:50:18.442Z,965.24
2018-11-29T15:52:44.707Z,965.29
2018-11-29T15:55:11.077Z,965.27
2018-11-29T15:57:37.471Z,965.32
2018-11-29T16:00:07.651Z,965.31
2018-11-29T16:02:33.959Z,965.34
2018-11-29T16:05:00.281Z,965.37
2018-11-29T16:07:27.094Z,965.39
2018-11-29T16:09:53.462Z,965.36
2018-11-29T16:12:19.756Z,965.38
2018-11-29T16:14:46.087Z,965.40
2018-11-29T16:17:12.519Z,965.43
2018-11-29T16:19:38.842Z,965.39
2018-11-29T16:22:05.192Z,965.45
2018-11-29T16:24:31.508Z,965.38
2018-11-29T16:26:57.934Z,965.37
2018-11-29T16:29:24.186Z,965.43
2018-11-29T16:31:50.608Z,965.39
2018-11-29T16:34:16.904Z,965.53
2018-11-29T16:36:43.244Z,965.55
2018-11-29T16:39:09.682Z,965.46
2018-11-29T16:41:36.010Z,965.48
2018-11-29T16:44:02.472Z,965.41
2018-11-29T16:46:28.769Z,965.42
2018-11-29T16:48:55.081Z,965.41
2018-11-29T16:51:21.414Z,965.46
2018-11-29T16:53:47.758Z,965.39
2018-11-29T16:56:14.228Z,965.44
2018-11-29T16:58:40.529Z,965.35
2018-11-29T17:01:09.008Z,965.43
2018-11-29T17:03:33.145Z,965.43
2018-11-29T17:05:59.469Z,965.39
2018-11-29T17:08:25.786Z,965.38
2018-11-29T17:10:52.080Z,965.38
2018-11-29T17:13:18.413Z,965.39
2018-11-29T17:15:44.748Z,965.47
2018-11-29T17:18:11.049Z,965.49
2018-11-29T17:20:37.420Z,965.46
2018-11-29T17:23:03.726Z,965.39
2018-11-29T17:25:30.044Z,965.42
2018-11-29T17:27:56.356Z,965.52
2018-11-29T17:30:23.885Z,965.41
2018-11-29T17:32:50.291Z,965.39
2018-11-29T17:35:16.558Z,965.37
2018-11-29T17:37:42.929Z,965.43
2018-11-29T17:40:09.260Z,965.34
2018-11-29T17:42:35.555Z,965.33
2018-11-29T17:45:01.874Z,965.40
2018-11-29T17:47:28.182Z,965.41
2018-11-29T17:49:54.512Z,965.41
2018-11-29T17:52:20.842Z,965.43
2018-11-29T17:54:47.236Z,965.44
2018-11-29T17:57:13.560Z,965.39
2018-11-29T17:59:39.889Z,965.39
2018-11-29T18:02:06.287Z,965.34
2018-11-29T18:04:32.579Z,965.36
2018-11-29T18:06:59.052Z,965.36
2018-11-29T18:09:25.356Z,965.27
2018-11-29T18:11:51.831Z,965.35
2018-11-29T18:14:18.248Z,965.32
2018-11-29T18:16:44.575Z,965.31
2018-11-29T18:19:13.103Z,965.30
2018-11-29T18:21:37.243Z,965.29
2018-11-29T18:24:03.558Z,965.32
2018-11-29T18:26:29.891Z,965.30
2018-11-29T18:28:56.155Z,965.25
2018-11-29T18:31:22.466Z,965.27
2018-11-29T18:33:48.832Z,965.33
2018-11-29T18:36:15.265Z,965.24
2018-11-29T18:38:41.507Z,965.27
2018-11-29T18:41:07.864Z,965.25
2018-11-29T18:43:34.162Z,965.22
2018-11-29T18:46:00.511Z,965.20
2018-11-29T18:48:26.882Z,965.22
2018-11-29T18:50:53.211Z,965.22
2018-11-29T18:53:19.532Z,965.26
2018-11-29T18:55:45.978Z,965.28
2018-11-29T18:58:12.295Z,965.25
2018-11-29T19:00:38.612Z,965.23
2018-11-29T19:03:04.932Z,965.25
2018-11-29T19:05:31.269Z,965.23
2018-11-29T19:07:57.592Z,965.22
2018-11-29T19:10:23.981Z,965.19
2018-11-29T19:12:50.395Z,965.19
2018-11-29T19:15:16.690Z,965.18
2018-11-29T19:17:43.063Z,965.24
2018-11-29T19:20:09.358Z,965.29
2018-11-29T19:22:35.665Z,965.25
2018-11-29T19:25:02.030Z,965.26
2018-11-29T19:27:28.381Z,965.31
2018-11-29T19:29:54.669Z,965.19
2018-11-29T19:32:21.034Z,965.23
2018-11-29T19:34:47.367Z,965.23
2018-11-29T19:37:13.679Z,965.26
2018-11-29T19:39:41.279Z,965.27
2018-11-29T19:42:06.305Z,965.35
2018-11-29T19:44:32.598Z,965.36
2018-11-29T19:46:58.944Z,965.38
2018-11-29T19:49:25.359Z,965.38
2018-11-29T19:51:51.654Z,965.33
2018-11-29T19:54:17.979Z,965.28
2018-11-29T19:56:44.284Z,965.35
2018-11-29T19:59:10.698Z,965.35
2018-11-29T20:01:37.051Z,965.38
2018-11-29T20:04:03.378Z,965.32
2018-11-29T20:06:29.818Z,965.35
2018-11-29T20:08:56.080Z,965.24
2018-11-29T20:11:22.557Z,965.44
2018-11-29T20:13:48.843Z,965.32
2018-11-29T20:16:15.308Z,965.37
2018-11-29T20:18:41.741Z,965.39
2018-11-29T20:21:08.065Z,965.42
2018-11-29T20:23:34.368Z,965.36
2018-11-29T20:26:00.733Z,965.36
2018-11-29T20:28:27.024Z,965.39
2018-11-29T20:30:53.380Z,965.43
2018-11-29T20:33:19.681Z,965.39
2018-11-29T20:35:46.012Z,965.40
2018-11-29T20:38:12.491Z,965.33
2018-11-29T20:40:38.829Z,965.33
2018-11-29T20:43:05.133Z,965.28
2018-11-29T20:45:31.441Z,965.27
2018-11-29T20:47:57.778Z,965.24
2018-11-29T20:50:24.087Z,965.24
2018-11-29T20:52:50.454Z,965.23
2018-11-29T20:55:16.799Z,965.19
2018-11-29T20:57:43.151Z,965.28
2018-11-29T21:00:09.443Z,965.29
2018-11-29T21:02:35.819Z,965.23
2018-11-29T21:05:02.151Z,965.26
2018-11-29T21:07:28.573Z,965.22
2018-11-29T21:09:54.923Z,965.20
2018-11-29T21:12:21.276Z,965.17
2018-11-29T21:14:47.567Z,965.14
2018-11-29T21:17:13.917Z,965.12
2018-11-29T21:19:40.221Z,965.17
2018-11-29T21:22:06.557Z,965.12
2018-11-29T21:24:32.903Z,965.08
2018-11-29T21:27:01.499Z,965.11
2018-11-29T21:29:27.795Z,965.07
2018-11-29T21:31:54.124Z,965.05
2018-11-29T21:34:20.459Z,965.00
2018-11-29T21:36:46.854Z,964.96
2018-11-29T21:39:13.192Z,964.95
2018-11-29T21:41:39.546Z,964.97
2018-11-29T21:44:05.840Z,964.87
2018-11-29T21:46:32.323Z,964.86
2018-11-29T21:48:58.617Z,964.82
2018-11-29T21:51:24.978Z,964.81
2018-11-29T21:53:51.301Z,964.82
2018-11-29T21:56:17.630Z,964.73
2018-11-29T21:58:43.951Z,964.74
2018-11-29T22:01:10.281Z,964.74
2018-11-29T22:03:36.587Z,964.75
2018-11-29T22:06:02.879Z,964.70
2018-11-29T22:08:29.211Z,964.78
2018-11-29T22:10:55.547Z,964.64
2018-11-29T22:13:21.919Z,964.63
2018-11-29T22:15:48.266Z,964.67
2018-11-29T22:18:14.594Z,964.61
2018-11-29T22:20:40.940Z,964.60
2018-11-29T22:23:07.254Z,964.50
2018-11-29T22:25:33.559Z,964.46
2018-11-29T22:27:59.863Z,964.38
2018-11-29T22:30:26.192Z,964.40
2018-11-29T22:32:52.538Z,964.32
2018-11-29T22:35:18.878Z,964.34
2018-11-29T22:37:45.229Z,964.27
2018-11-29T22:40:11.536Z,964.23
2018-11-29T22:42:37.857Z,964.23
2018-11-29T22:45:04.160Z,964.14
2018-11-29T22:47:30.455Z,964.21
2018-11-29T22:49:56.798Z,964.15
2018-11-29T22:52:23.117Z,964.17
2018-11-29T22:54:49.583Z,964.17
2018-11-29T22:57:15.870Z,964.13
2018-11-29T22:59:42.167Z,964.24
2018-11-29T23:02:08.477Z,964.13
2018-11-29T23:04:34.808Z,964.06
2018-11-29T23:07:01.110Z,964.04
2018-11-29T23:09:27.408Z,964.03
2018-11-29T23:11:53.731Z,964.04
2018-11-29T23:14:20.018Z,964.02
2018-11-29T23:16:46.326Z,964.05
2018-11-29T23:19:12.640Z,964.01
2018-11-29T23:21:38.975Z,964.07
2018-11-29T23:24:05.301Z,964.01
2018-11-29T23:26:31.674Z,963.97
2018-11-29T23:28:58.000Z,964.05
2018-11-29T23:31:24.502Z,963.97
2018-11-29T23:33:50.608Z,963.97
2018-11-29T23:36:16.905Z,963.99
2018-11-29T23:38:43.205Z,963.99
2018-11-29T23:41:09.939Z,963.93
2018-11-29T23:43:35.850Z,964.04
2018-11-29T23:46:02.149Z,963.93
2018-11-29T23:48:28.472Z,963.99
2018-11-29T23:50:54.778Z,963.95
2018-11-29T23:53:21.103Z,963.90
2018-11-29T23:55:47.539Z,963.94
2018-11-29T23:58:13.842Z,963.90
